sensor_id;sensor_type;location;lat;lon;timestamp;pressure;altitude;pressure_sealevel;temperature;humidity
7480;BME280;3781;42.272;22.658;2022-08-19T00:02:23;94244.22;;;17.12;98.87
7480;BME280;3781;42.272;22.658;2022-08-19T00:04:51;94255.78;;;17.32;96.75
7480;BME280;3781;42.272;22.658;2022-08-19T00:07:19;94392.59;;;18.17;98.89
7480;BME280;3781;42.272;22.658;2022-08-19T00:09:46;94339.38;;;17.79;100.00
7480;BME280;3781;42.272;22.658;2022-08-19T00:12:13;94373.06;;;17.90;100.00
7480;BME280;3781;42.272;22.658;2022-08-19T00:14:40;94373.91;;;17.47;100.00
7480;BME280;3781;42.272;22.658;2022-08-19T00:17:08;94425.19;;;17.72;100.00
7480;BME280;3781;42.272;22.658;2022-08-19T00:19:36;94411.94;;;17.51;100.00
7480;BME280;3781;42.272;22.658;2022-08-19T00:22:05;94333.19;;;17.22;100.00
7480;BME280;3781;42.272;22.658;2022-08-19T00:24:34;94349.09;;;17.35;100.00
7480;BME280;3781;42.272;22.658;2022-08-19T00:27:02;94303.50;;;17.07;100.00
7480;BME280;3781;42.272;22.658;2022-08-19T00:29:29;94289.84;;;17.11;100.00
7480;BME280;3781;42.272;22.658;2022-08-19T00:31:56;94407.31;;;17.97;100.00
7480;BME280;3781;42.272;22.658;2022-08-19T00:34:25;94394.72;;;17.92;100.00
7480;BME280;3781;42.272;22.658;2022-08-19T00:36:54;94381.34;;;17.87;100.00
7480;BME280;3781;42.272;22.658;2022-08-19T00:39:22;94334.81;;;17.52;100.00
7480;BME280;3781;42.272;22.658;2022-08-19T00:41:50;94371.19;;;17.55;100.00
7480;BME280;3781;42.272;22.658;2022-08-19T00:44:19;94340.38;;;16.91;100.00
7480;BME280;3781;42.272;22.658;2022-08-19T00:46:48;94390.38;;;17.26;100.00
7480;BME280;3781;42.272;22.658;2022-08-19T00:49:19;94395.84;;;17.54;100.00
7480;BME280;3781;42.272;22.658;2022-08-19T00:51:50;94395.22;;;17.67;100.00
7480;BME280;3781;42.272;22.658;2022-08-19T00:54:18;94423.72;;;17.84;100.00
7480;BME280;3781;42.272;22.658;2022-08-19T00:56:48;94362.50;;;17.25;100.00
7480;BME280;3781;42.272;22.658;2022-08-19T00:59:17;94252.56;;;16.49;100.00
7480;BME280;3781;42.272;22.658;2022-08-19T01:01:45;94386.16;;;17.55;100.00
7480;BME280;3781;42.272;22.658;2022-08-19T01:04:13;94392.59;;;17.52;100.00
7480;BME280;3781;42.272;22.658;2022-08-19T01:06:40;94301.41;;;17.17;100.00
7480;BME280;3781;42.272;22.658;2022-08-19T01:09:08;94368.03;;;17.60;100.00
7480;BME280;3781;42.272;22.658;2022-08-19T01:11:36;94403.53;;;17.85;100.00
7480;BME280;3781;42.272;22.658;2022-08-19T01:14:07;94413.75;;;17.94;100.00
7480;BME280;3781;42.272;22.658;2022-08-19T01:16:36;94291.81;;;17.09;100.00
7480;BME280;3781;42.272;22.658;2022-08-19T01:19:10;94340.75;;;17.31;100.00
7480;BME280;3781;42.272;22.658;2022-08-19T01:21:43;94428.47;;;17.74;100.00
7480;BME280;3781;42.272;22.658;2022-08-19T01:24:15;94300.69;;;16.94;100.00
7480;BME280;3781;42.272;22.658;2022-08-19T01:26:43;94415.94;;;17.76;100.00
7480;BME280;3781;42.272;22.658;2022-08-19T01:29:11;94346.09;;;17.23;100.00
7480;BME280;3781;42.272;22.658;2022-08-19T01:31:39;94415.72;;;17.34;100.00
7480;BME280;3781;42.272;22.658;2022-08-19T01:34:06;94300.22;;;16.53;100.00
7480;BME280;3781;42.272;22.658;2022-08-19T01:36:35;94343.69;;;16.70;100.00
7480;BME280;3781;42.272;22.658;2022-08-19T01:39:05;94334.16;;;16.54;100.00
7480;BME280;3781;42.272;22.658;2022-08-19T01:41:34;94209.75;;;15.60;100.00
7480;BME280;3781;42.272;22.658;2022-08-19T01:44:02;94419.66;;;16.55;100.00
7480;BME280;3781;42.272;22.658;2022-08-19T01:46:30;94283.09;;;15.52;100.00
7480;BME280;3781;42.272;22.658;2022-08-19T01:48:58;94342.91;;;15.94;100.00
7480;BME280;3781;42.272;22.658;2022-08-19T01:51:25;94212.06;;;15.24;100.00
7480;BME280;3781;42.272;22.658;2022-08-19T01:53:53;94400.69;;;16.53;100.00
7480;BME280;3781;42.272;22.658;2022-08-19T01:56:20;94294.53;;;16.04;100.00
7480;BME280;3781;42.272;22.658;2022-08-19T01:58:52;94416.34;;;16.84;100.00
7480;BME280;3781;42.272;22.658;2022-08-19T02:01:20;94313.53;;;16.29;100.00
7480;BME280;3781;42.272;22.658;2022-08-19T02:03:47;94297.00;;;16.28;100.00
7480;BME280;3781;42.272;22.658;2022-08-19T02:06:14;94396.81;;;16.87;100.00
7480;BME280;3781;42.272;22.658;2022-08-19T02:08:42;94292.19;;;16.32;100.00
7480;BME280;3781;42.272;22.658;2022-08-19T02:11:19;94312.56;;;16.44;100.00
7480;BME280;3781;42.272;22.658;2022-08-19T02:13:46;94379.22;;;16.73;100.00
7480;BME280;3781;42.272;22.658;2022-08-19T02:16:16;94349.81;;;16.17;100.00
7480;BME280;3781;42.272;22.658;2022-08-19T02:18:43;94298.41;;;15.63;100.00
7480;BME280;3781;42.272;22.658;2022-08-19T02:21:10;94262.88;;;15.30;100.00
7480;BME280;3781;42.272;22.658;2022-08-19T02:23:38;94287.25;;;15.69;100.00
7480;BME280;3781;42.272;22.658;2022-08-19T02:26:05;94254.25;;;15.60;100.00
7480;BME280;3781;42.272;22.658;2022-08-19T02:28:32;94404.00;;;16.70;100.00
7480;BME280;3781;42.272;22.658;2022-08-19T02:30:59;94370.03;;;16.77;100.00
7480;BME280;3781;42.272;22.658;2022-08-19T02:33:29;94373.13;;;16.95;100.00
7480;BME280;3781;42.272;22.658;2022-08-19T02:35:56;94332.22;;;16.48;100.00
7480;BME280;3781;42.272;22.658;2022-08-19T02:38:23;94348.34;;;16.37;100.00
7480;BME280;3781;42.272;22.658;2022-08-19T02:40:53;94261.75;;;16.08;100.00
7480;BME280;3781;42.272;22.658;2022-08-19T02:43:21;94403.84;;;17.09;100.00
7480;BME280;3781;42.272;22.658;2022-08-19T02:45:49;94230.63;;;16.13;100.00
7480;BME280;3781;42.272;22.658;2022-08-19T02:48:17;94273.09;;;16.23;100.00
7480;BME280;3781;42.272;22.658;2022-08-19T02:50:46;94216.31;;;15.56;100.00
7480;BME280;3781;42.272;22.658;2022-08-19T02:53:14;94328.19;;;16.15;100.00
7480;BME280;3781;42.272;22.658;2022-08-19T02:55:44;94284.41;;;16.01;100.00
7480;BME280;3781;42.272;22.658;2022-08-19T02:58:12;94189.16;;;15.57;100.00
7480;BME280;3781;42.272;22.658;2022-08-19T03:00:43;94371.50;;;16.94;100.00
7480;BME280;3781;42.272;22.658;2022-08-19T03:03:11;94326.13;;;16.71;100.00
7480;BME280;3781;42.272;22.658;2022-08-19T03:05:38;94408.25;;;16.94;100.00
7480;BME280;3781;42.272;22.658;2022-08-19T03:08:07;94415.69;;;16.82;100.00
7480;BME280;3781;42.272;22.658;2022-08-19T03:10:40;94323.66;;;16.09;100.00
7480;BME280;3781;42.272;22.658;2022-08-19T03:13:07;94420.81;;;16.53;100.00
7480;BME280;3781;42.272;22.658;2022-08-19T03:15:34;94306.97;;;15.79;100.00
7480;BME280;3781;42.272;22.658;2022-08-19T03:18:01;94379.66;;;16.08;100.00
7480;BME280;3781;42.272;22.658;2022-08-19T03:20:28;94327.47;;;15.76;100.00
7480;BME280;3781;42.272;22.658;2022-08-19T03:22:55;94371.41;;;16.19;100.00
7480;BME280;3781;42.272;22.658;2022-08-19T03:25:23;94305.47;;;15.85;100.00
7480;BME280;3781;42.272;22.658;2022-08-19T03:27:50;94343.38;;;15.97;100.00
7480;BME280;3781;42.272;22.658;2022-08-19T03:30:17;94399.38;;;16.49;100.00
7480;BME280;3781;42.272;22.658;2022-08-19T03:32:44;94403.03;;;16.40;100.00
7480;BME280;3781;42.272;22.658;2022-08-19T03:35:11;94310.72;;;15.85;100.00
7480;BME280;3781;42.272;22.658;2022-08-19T03:37:38;94223.50;;;15.23;100.00
7480;BME280;3781;42.272;22.658;2022-08-19T03:40:06;94333.28;;;15.86;100.00
7480;BME280;3781;42.272;22.658;2022-08-19T03:42:34;94290.69;;;15.31;100.00
7480;BME280;3781;42.272;22.658;2022-08-19T03:45:01;94315.56;;;15.27;100.00
7480;BME280;3781;42.272;22.658;2022-08-19T03:47:28;94258.38;;;15.07;100.00
7480;BME280;3781;42.272;22.658;2022-08-19T03:49:55;94422.53;;;16.15;100.00
7480;BME280;3781;42.272;22.658;2022-08-19T03:52:22;94274.22;;;15.53;100.00
7480;BME280;3781;42.272;22.658;2022-08-19T03:54:49;94332.72;;;15.99;100.00
7480;BME280;3781;42.272;22.658;2022-08-19T03:57:17;94265.59;;;15.44;100.00
7480;BME280;3781;42.272;22.658;2022-08-19T03:59:45;94294.16;;;15.62;100.00
7480;BME280;3781;42.272;22.658;2022-08-19T04:02:12;94344.00;;;15.99;100.00
7480;BME280;3781;42.272;22.658;2022-08-19T04:04:41;94308.44;;;15.82;100.00
7480;BME280;3781;42.272;22.658;2022-08-19T04:07:09;94325.75;;;15.91;100.00
7480;BME280;3781;42.272;22.658;2022-08-19T04:09:36;94470.91;;;16.89;100.00
7480;BME280;3781;42.272;22.658;2022-08-19T04:12:04;94476.16;;;16.89;100.00
7480;BME280;3781;42.272;22.658;2022-08-19T04:14:32;94419.66;;;16.55;100.00
7480;BME280;3781;42.272;22.658;2022-08-19T04:17:02;94446.91;;;16.46;100.00
7480;BME280;3781;42.272;22.658;2022-08-19T04:19:30;94443.28;;;16.47;100.00
7480;BME280;3781;42.272;22.658;2022-08-19T04:21:57;94482.13;;;16.75;100.00
7480;BME280;3781;42.272;22.658;2022-08-19T04:24:24;94394.94;;;16.27;100.00
7480;BME280;3781;42.272;22.658;2022-08-19T04:26:51;94426.63;;;16.40;100.00
7480;BME280;3781;42.272;22.658;2022-08-19T04:29:24;94473.63;;;16.73;100.00
7480;BME280;3781;42.272;22.658;2022-08-19T04:31:54;94481.41;;;16.89;100.00
7480;BME280;3781;42.272;22.658;2022-08-19T04:34:24;94469.81;;;16.83;100.00
7480;BME280;3781;42.272;22.658;2022-08-19T04:36:52;94481.28;;;17.05;100.00
7480;BME280;3781;42.272;22.658;2022-08-19T04:39:22;94466.19;;;17.07;100.00
7480;BME280;3781;42.272;22.658;2022-08-19T04:42:09;94461.78;;;17.22;100.00
7480;BME280;3781;42.272;22.658;2022-08-19T04:45:06;94426.72;;;17.15;100.00
7480;BME280;3781;42.272;22.658;2022-08-19T04:47:35;94458.25;;;17.52;100.00
7480;BME280;3781;42.272;22.658;2022-08-19T04:50:04;94448.56;;;17.67;100.00
7480;BME280;3781;42.272;22.658;2022-08-19T04:52:31;94454.44;;;18.13;100.00
7480;BME280;3781;42.272;22.658;2022-08-19T04:54:58;94476.94;;;18.66;100.00
7480;BME280;3781;42.272;22.658;2022-08-19T04:57:26;94487.19;;;18.82;100.00
7480;BME280;3781;42.272;22.658;2022-08-19T04:59:54;94494.34;;;18.88;100.00
7480;BME280;3781;42.272;22.658;2022-08-19T05:02:21;94442.59;;;18.74;100.00
7480;BME280;3781;42.272;22.658;2022-08-19T05:04:55;94448.28;;;18.77;100.00
7480;BME280;3781;42.272;22.658;2022-08-19T05:07:24;94412.41;;;18.70;100.00
7480;BME280;3781;42.272;22.658;2022-08-19T05:09:51;94462.69;;;19.45;100.00
7480;BME280;3781;42.272;22.658;2022-08-19T05:12:18;94471.56;;;19.37;100.00
7480;BME280;3781;42.272;22.658;2022-08-19T05:14:46;94456.94;;;19.35;100.00
7480;BME280;3781;42.272;22.658;2022-08-19T05:17:14;94473.44;;;19.78;100.00
7480;BME280;3781;42.272;22.658;2022-08-19T05:19:41;94473.16;;;19.94;100.00
7480;BME280;3781;42.272;22.658;2022-08-19T05:22:27;94485.38;;;20.08;100.00
7480;BME280;3781;42.272;22.658;2022-08-19T05:25:04;94487.75;;;20.24;100.00
7480;BME280;3781;42.272;22.658;2022-08-19T05:27:31;94466.66;;;20.84;98.06
7480;BME280;3781;42.272;22.658;2022-08-19T05:29:58;94494.16;;;21.36;96.33
7480;BME280;3781;42.272;22.658;2022-08-19T05:32:26;94497.63;;;21.75;89.64
7480;BME280;3781;42.272;22.658;2022-08-19T05:34:53;94476.69;;;21.74;85.52
7480;BME280;3781;42.272;22.658;2022-08-19T05:37:19;94489.06;;;22.19;85.31
7480;BME280;3781;42.272;22.658;2022-08-19T05:39:48;94494.47;;;22.50;82.64
7480;BME280;3781;42.272;22.658;2022-08-19T05:42:15;94511.00;;;23.28;76.46
7480;BME280;3781;42.272;22.658;2022-08-19T05:44:43;94491.22;;;24.29;68.77
7480;BME280;3781;42.272;22.658;2022-08-19T05:47:12;94470.94;;;24.35;66.08
7480;BME280;3781;42.272;22.658;2022-08-19T05:49:40;94512.44;;;25.31;63.55
7480;BME280;3781;42.272;22.658;2022-08-19T05:52:09;94500.13;;;26.13;58.08
7480;BME280;3781;42.272;22.658;2022-08-19T05:54:37;94504.59;;;26.47;54.09
7480;BME280;3781;42.272;22.658;2022-08-19T05:57:07;94524.69;;;27.01;53.88
7480;BME280;3781;42.272;22.658;2022-08-19T05:59:34;94517.97;;;26.99;52.81
7480;BME280;3781;42.272;22.658;2022-08-19T06:02:03;94494.91;;;27.77;50.53
7480;BME280;3781;42.272;22.658;2022-08-19T06:04:30;94503.31;;;28.35;47.94
7480;BME280;3781;42.272;22.658;2022-08-19T06:06:57;94511.88;;;28.38;46.34
7480;BME280;3781;42.272;22.658;2022-08-19T06:09:24;94496.63;;;28.16;45.83
7480;BME280;3781;42.272;22.658;2022-08-19T06:11:52;94507.97;;;27.95;48.03
7480;BME280;3781;42.272;22.658;2022-08-19T06:14:23;94516.25;;;26.92;51.34
7480;BME280;3781;42.272;22.658;2022-08-19T06:16:50;94502.44;;;26.44;52.71
7480;BME280;3781;42.272;22.658;2022-08-19T06:19:19;94516.03;;;25.78;55.35
7480;BME280;3781;42.272;22.658;2022-08-19T06:21:48;94505.56;;;25.54;56.46
7480;BME280;3781;42.272;22.658;2022-08-19T06:24:18;94512.22;;;25.03;57.64
7480;BME280;3781;42.272;22.658;2022-08-19T06:26:48;94484.50;;;24.81;59.29
7480;BME280;3781;42.272;22.658;2022-08-19T06:29:18;94514.19;;;25.08;59.86
7480;BME280;3781;42.272;22.658;2022-08-19T06:31:48;94495.34;;;24.61;60.31
7480;BME280;3781;42.272;22.658;2022-08-19T06:34:17;94511.47;;;24.60;61.32
7480;BME280;3781;42.272;22.658;2022-08-19T06:36:46;94490.38;;;24.47;62.49
7480;BME280;3781;42.272;22.658;2022-08-19T06:39:15;94477.25;;;24.52;62.29
7480;BME280;3781;42.272;22.658;2022-08-19T06:41:45;94472.63;;;24.65;62.76
7480;BME280;3781;42.272;22.658;2022-08-19T06:44:13;94494.22;;;24.69;59.42
7480;BME280;3781;42.272;22.658;2022-08-19T06:46:41;94513.66;;;24.88;62.87
7480;BME280;3781;42.272;22.658;2022-08-19T06:49:10;94503.25;;;24.68;59.83
7480;BME280;3781;42.272;22.658;2022-08-19T06:51:40;94508.41;;;24.81;63.24
7480;BME280;3781;42.272;22.658;2022-08-19T06:54:07;94511.47;;;24.60;61.63
7480;BME280;3781;42.272;22.658;2022-08-19T06:56:35;94496.22;;;24.73;62.91
7480;BME280;3781;42.272;22.658;2022-08-19T06:59:04;94486.66;;;25.02;60.21
7480;BME280;3781;42.272;22.658;2022-08-19T07:01:34;94504.91;;;25.58;59.45
7480;BME280;3781;42.272;22.658;2022-08-19T07:04:04;94461.59;;;25.39;59.52
7480;BME280;3781;42.272;22.658;2022-08-19T07:06:32;94493.16;;;25.77;60.25
7480;BME280;3781;42.272;22.658;2022-08-19T07:08:59;94499.19;;;25.96;60.43
7480;BME280;3781;42.272;22.658;2022-08-19T07:11:26;94478.91;;;25.72;58.35
7480;BME280;3781;42.272;22.658;2022-08-19T07:13:53;94492.44;;;25.82;59.00
7480;BME280;3781;42.272;22.658;2022-08-19T07:16:20;94495.09;;;25.82;58.14
7480;BME280;3781;42.272;22.658;2022-08-19T07:18:48;94478.91;;;25.95;58.95
7480;BME280;3781;42.272;22.658;2022-08-19T07:21:17;94463.19;;;26.16;56.30
7480;BME280;3781;42.272;22.658;2022-08-19T07:23:45;94490.56;;;26.63;55.45
7480;BME280;3781;42.272;22.658;2022-08-19T07:26:16;94471.50;;;26.43;55.66
7480;BME280;3781;42.272;22.658;2022-08-19T07:28:45;94504.25;;;27.07;56.60
7480;BME280;3781;42.272;22.658;2022-08-19T07:31:13;94469.31;;;26.40;57.74
7480;BME280;3781;42.272;22.658;2022-08-19T07:33:41;94499.47;;;26.80;58.27
7480;BME280;3781;42.272;22.658;2022-08-19T07:36:11;94512.38;;;27.12;56.20
7480;BME280;3781;42.272;22.658;2022-08-19T07:38:40;94476.78;;;27.34;54.82
7480;BME280;3781;42.272;22.658;2022-08-19T07:41:11;94513.03;;;27.75;55.26
7480;BME280;3781;42.272;22.658;2022-08-19T07:43:39;94499.91;;;27.74;56.85
7480;BME280;3781;42.272;22.658;2022-08-19T07:46:06;94388.88;;;27.39;53.67
7480;BME280;3781;42.272;22.658;2022-08-19T07:48:34;94510.72;;;27.67;51.12
7480;BME280;3781;42.272;22.658;2022-08-19T07:51:04;94506.53;;;27.71;54.86
7480;BME280;3781;42.272;22.658;2022-08-19T07:53:33;94448.38;;;27.40;54.38
7480;BME280;3781;42.272;22.658;2022-08-19T07:56:01;94457.19;;;27.57;55.31
7480;BME280;3781;42.272;22.658;2022-08-19T07:58:32;94480.59;;;28.00;55.61
7480;BME280;3781;42.272;22.658;2022-08-19T08:01:00;94415.97;;;27.48;56.01
7480;BME280;3781;42.272;22.658;2022-08-19T08:03:28;94499.34;;;28.21;53.18
7480;BME280;3781;42.272;22.658;2022-08-19T08:06:09;94488.25;;;28.29;52.72
7480;BME280;3781;42.272;22.658;2022-08-19T08:08:53;94495.84;;;28.76;54.39
7480;BME280;3781;42.272;22.658;2022-08-19T08:11:44;94462.28;;;28.85;52.55
7480;BME280;3781;42.272;22.658;2022-08-19T08:14:16;94487.34;;;29.49;52.82
7480;BME280;3781;42.272;22.658;2022-08-19T08:16:44;94433.81;;;29.22;51.46
7480;BME280;3781;42.272;22.658;2022-08-19T08:19:12;94364.56;;;28.99;51.77
7480;BME280;3781;42.272;22.658;2022-08-19T08:21:40;94501.88;;;30.58;46.22
7480;BME280;3781;42.272;22.658;2022-08-19T08:24:07;94473.81;;;31.53;47.75
7480;BME280;3781;42.272;22.658;2022-08-19T08:26:34;94476.53;;;31.78;42.76
7480;BME280;3781;42.272;22.658;2022-08-19T08:29:01;94487.28;;;32.53;45.34
7480;BME280;3781;42.272;22.658;2022-08-19T08:31:29;94493.47;;;34.15;42.75
7480;BME280;3781;42.272;22.658;2022-08-19T08:33:57;94469.50;;;34.43;39.76
7480;BME280;3781;42.272;22.658;2022-08-19T08:36:24;94451.59;;;35.41;37.54
7480;BME280;3781;42.272;22.658;2022-08-19T08:38:52;94483.84;;;36.26;34.59
7480;BME280;3781;42.272;22.658;2022-08-19T08:41:23;94411.47;;;37.04;35.94
7480;BME280;3781;42.272;22.658;2022-08-19T08:43:53;94497.47;;;38.33;34.48
7480;BME280;3781;42.272;22.658;2022-08-19T08:46:25;94488.09;;;38.39;33.19
7480;BME280;3781;42.272;22.658;2022-08-19T08:49:02;94475.25;;;39.15;32.57
7480;BME280;3781;42.272;22.658;2022-08-19T08:51:37;94475.09;;;40.02;30.26
7480;BME280;3781;42.272;22.658;2022-08-19T08:54:07;94483.22;;;41.00;27.98
7480;BME280;3781;42.272;22.658;2022-08-19T08:56:34;94475.75;;;39.17;31.45
7480;BME280;3781;42.272;22.658;2022-08-19T08:59:04;94481.75;;;39.87;32.36
7480;BME280;3781;42.272;22.658;2022-08-19T09:01:33;94481.28;;;40.37;31.63
7480;BME280;3781;42.272;22.658;2022-08-19T09:04:04;94412.59;;;40.86;29.72
7480;BME280;3781;42.272;22.658;2022-08-19T09:06:37;94486.03;;;42.53;28.26
7480;BME280;3781;42.272;22.658;2022-08-19T09:09:12;94475.78;;;42.95;28.18
7480;BME280;3781;42.272;22.658;2022-08-19T09:11:50;94476.16;;;42.60;27.90
7480;BME280;3781;42.272;22.658;2022-08-19T09:14:35;94476.69;;;40.92;27.70
7480;BME280;3781;42.272;22.658;2022-08-19T09:17:03;94448.03;;;40.78;30.98
7480;BME280;3781;42.272;22.658;2022-08-19T09:19:35;94448.16;;;41.27;26.54
7480;BME280;3781;42.272;22.658;2022-08-19T09:22:02;94464.75;;;41.64;28.69
7480;BME280;3781;42.272;22.658;2022-08-19T09:24:30;94407.44;;;42.26;28.52
7480;BME280;3781;42.272;22.658;2022-08-19T09:26:57;94441.22;;;42.21;28.79
7480;BME280;3781;42.272;22.658;2022-08-19T09:29:24;94419.25;;;41.56;26.88
7480;BME280;3781;42.272;22.658;2022-08-19T09:31:51;94458.53;;;41.84;23.28
7480;BME280;3781;42.272;22.658;2022-08-19T09:34:19;94455.69;;;42.34;26.54
7480;BME280;3781;42.272;22.658;2022-08-19T09:36:47;94373.97;;;41.13;23.42
7480;BME280;3781;42.272;22.658;2022-08-19T09:39:20;94447.94;;;40.40;26.88
7480;BME280;3781;42.272;22.658;2022-08-19T09:41:47;94416.09;;;40.40;28.29
7480;BME280;3781;42.272;22.658;2022-08-19T09:44:15;94417.25;;;39.28;26.42
7480;BME280;3781;42.272;22.658;2022-08-19T09:46:42;94445.75;;;40.25;25.54
7480;BME280;3781;42.272;22.658;2022-08-19T09:49:09;94430.72;;;39.93;26.12
7480;BME280;3781;42.272;22.658;2022-08-19T09:51:35;94436.88;;;40.62;25.73
7480;BME280;3781;42.272;22.658;2022-08-19T09:54:04;94423.00;;;41.72;26.17
7480;BME280;3781;42.272;22.658;2022-08-19T09:56:31;94434.53;;;42.75;24.10
7480;BME280;3781;42.272;22.658;2022-08-19T09:58:59;94446.09;;;43.93;20.66
7480;BME280;3781;42.272;22.658;2022-08-19T10:01:27;94405.06;;;44.21;19.40
7480;BME280;3781;42.272;22.658;2022-08-19T10:03:56;94430.47;;;42.94;21.02
7480;BME280;3781;42.272;22.658;2022-08-19T10:06:25;94376.91;;;43.29;19.83
7480;BME280;3781;42.272;22.658;2022-08-19T10:08:54;94413.56;;;42.80;22.22
7480;BME280;3781;42.272;22.658;2022-08-19T10:11:22;94405.63;;;43.23;23.05
7480;BME280;3781;42.272;22.658;2022-08-19T10:13:49;94399.03;;;43.36;21.36
7480;BME280;3781;42.272;22.658;2022-08-19T10:16:19;94421.72;;;41.19;24.54
7480;BME280;3781;42.272;22.658;2022-08-19T10:18:48;94384.66;;;39.79;24.60
7480;BME280;3781;42.272;22.658;2022-08-19T10:21:16;94375.00;;;38.26;25.41
7480;BME280;3781;42.272;22.658;2022-08-19T10:23:46;94413.84;;;38.13;26.24
7480;BME280;3781;42.272;22.658;2022-08-19T10:26:16;94409.94;;;37.97;25.57
7480;BME280;3781;42.272;22.658;2022-08-19T10:28:44;94411.41;;;38.56;27.05
7480;BME280;3781;42.272;22.658;2022-08-19T10:31:14;94406.91;;;38.52;27.64
7480;BME280;3781;42.272;22.658;2022-08-19T10:33:43;94331.38;;;38.54;28.62
7480;BME280;3781;42.272;22.658;2022-08-19T10:36:12;94371.81;;;39.54;25.62
7480;BME280;3781;42.272;22.658;2022-08-19T10:38:40;94389.97;;;38.55;26.26
7480;BME280;3781;42.272;22.658;2022-08-19T10:41:09;94371.88;;;38.81;24.67
7480;BME280;3781;42.272;22.658;2022-08-19T10:43:38;94383.69;;;39.92;26.69
7480;BME280;3781;42.272;22.658;2022-08-19T10:46:07;94355.72;;;40.47;26.19
7480;BME280;3781;42.272;22.658;2022-08-19T10:48:34;94306.03;;;40.12;28.13
7480;BME280;3781;42.272;22.658;2022-08-19T10:51:02;94352.66;;;39.76;24.83
7480;BME280;3781;42.272;22.658;2022-08-19T10:53:47;94358.44;;;39.66;26.79
7480;BME280;3781;42.272;22.658;2022-08-19T10:56:14;94388.75;;;40.75;24.80
7480;BME280;3781;42.272;22.658;2022-08-19T10:58:59;94354.31;;;41.28;20.91
7480;BME280;3781;42.272;22.658;2022-08-19T11:01:31;94335.56;;;41.68;21.20
7480;BME280;3781;42.272;22.658;2022-08-19T11:03:59;94370.41;;;41.63;23.78
7480;BME280;3781;42.272;22.658;2022-08-19T11:06:27;94374.75;;;41.14;26.07
7480;BME280;3781;42.272;22.658;2022-08-19T11:08:54;94357.75;;;40.58;26.34
7480;BME280;3781;42.272;22.658;2022-08-19T11:11:22;94317.16;;;41.45;24.90
7480;BME280;3781;42.272;22.658;2022-08-19T11:13:49;94329.16;;;42.42;23.42
7480;BME280;3781;42.272;22.658;2022-08-19T11:16:19;94351.63;;;41.61;24.10
7480;BME280;3781;42.272;22.658;2022-08-19T11:18:50;94365.50;;;41.36;23.62
7480;BME280;3781;42.272;22.658;2022-08-19T11:21:19;94329.13;;;41.02;24.54
7480;BME280;3781;42.272;22.658;2022-08-19T11:23:49;94357.78;;;41.58;21.57
7480;BME280;3781;42.272;22.658;2022-08-19T11:26:18;94268.06;;;40.53;26.51
7480;BME280;3781;42.272;22.658;2022-08-19T11:28:45;94357.41;;;41.48;22.53
7480;BME280;3781;42.272;22.658;2022-08-19T11:31:13;94340.75;;;41.41;24.52
7480;BME280;3781;42.272;22.658;2022-08-19T11:33:41;94313.94;;;41.96;24.78
7480;BME280;3781;42.272;22.658;2022-08-19T11:36:09;94345.13;;;43.64;22.69
7480;BME280;3781;42.272;22.658;2022-08-19T11:38:36;94346.84;;;43.17;22.91
7480;BME280;3781;42.272;22.658;2022-08-19T11:41:05;94353.47;;;42.80;21.90
7480;BME280;3781;42.272;22.658;2022-08-19T11:43:33;94331.78;;;43.23;22.21
7480;BME280;3781;42.272;22.658;2022-08-19T11:46:04;94296.66;;;42.73;23.94
7480;BME280;3781;42.272;22.658;2022-08-19T11:48:32;94334.88;;;42.85;23.39
7480;BME280;3781;42.272;22.658;2022-08-19T11:50:59;94331.25;;;43.69;22.26
7480;BME280;3781;42.272;22.658;2022-08-19T11:53:33;94331.56;;;44.70;22.48
7480;BME280;3781;42.272;22.658;2022-08-19T11:56:01;94334.25;;;45.17;22.20
7480;BME280;3781;42.272;22.658;2022-08-19T11:58:28;94311.75;;;43.19;20.88
7480;BME280;3781;42.272;22.658;2022-08-19T12:00:55;94308.69;;;42.72;20.23
7480;BME280;3781;42.272;22.658;2022-08-19T12:03:23;94312.00;;;43.26;22.15
7480;BME280;3781;42.272;22.658;2022-08-19T12:05:50;94320.72;;;44.58;22.22
7480;BME280;3781;42.272;22.658;2022-08-19T12:08:17;94317.25;;;46.00;20.46
7480;BME280;3781;42.272;22.658;2022-08-19T12:10:46;94322.47;;;46.99;20.60
7480;BME280;3781;42.272;22.658;2022-08-19T12:13:13;94317.88;;;47.33;18.26
7480;BME280;3781;42.272;22.658;2022-08-19T12:15:45;94334.34;;;48.62;16.08
7480;BME280;3781;42.272;22.658;2022-08-19T12:18:13;94306.06;;;48.69;19.83
7480;BME280;3781;42.272;22.658;2022-08-19T12:20:41;94319.59;;;48.81;16.28
7480;BME280;3781;42.272;22.658;2022-08-19T12:23:09;94298.09;;;46.71;18.00
7480;BME280;3781;42.272;22.658;2022-08-19T12:25:36;94278.00;;;45.23;18.74
7480;BME280;3781;42.272;22.658;2022-08-19T12:28:05;94252.53;;;43.11;20.11
7480;BME280;3781;42.272;22.658;2022-08-19T12:30:31;94301.44;;;41.95;23.29
7480;BME280;3781;42.272;22.658;2022-08-19T12:32:58;94202.97;;;41.22;23.97
7480;BME280;3781;42.272;22.658;2022-08-19T12:35:25;94288.44;;;41.80;23.41
7480;BME280;3781;42.272;22.658;2022-08-19T12:37:52;94285.31;;;43.35;24.30
7480;BME280;3781;42.272;22.658;2022-08-19T12:40:19;94287.22;;;44.49;22.59
7480;BME280;3781;42.272;22.658;2022-08-19T12:42:46;94285.28;;;43.90;21.01
7480;BME280;3781;42.272;22.658;2022-08-19T12:45:16;94283.47;;;44.88;20.62
7480;BME280;3781;42.272;22.658;2022-08-19T12:47:42;94281.13;;;46.43;21.54
7480;BME280;3781;42.272;22.658;2022-08-19T12:50:11;94282.66;;;47.42;18.83
7480;BME280;3781;42.272;22.658;2022-08-19T12:52:38;94289.97;;;48.30;18.78
7480;BME280;3781;42.272;22.658;2022-08-19T12:55:07;94279.31;;;49.34;17.95
7480;BME280;3781;42.272;22.658;2022-08-19T12:57:34;94276.31;;;47.71;19.75
7480;BME280;3781;42.272;22.658;2022-08-19T13:00:05;94249.44;;;46.04;19.95
7480;BME280;3781;42.272;22.658;2022-08-19T13:02:37;94255.28;;;46.25;20.45
7480;BME280;3781;42.272;22.658;2022-08-19T13:05:08;94253.66;;;46.43;19.77
7480;BME280;3781;42.272;22.658;2022-08-19T13:07:36;94245.66;;;44.15;21.46
7480;BME280;3781;42.272;22.658;2022-08-19T13:10:05;94250.94;;;45.21;17.56
7480;BME280;3781;42.272;22.658;2022-08-19T13:12:32;94259.56;;;45.04;18.58
7480;BME280;3781;42.272;22.658;2022-08-19T13:14:59;94255.06;;;44.96;19.65
7480;BME280;3781;42.272;22.658;2022-08-19T13:17:25;94249.13;;;45.29;21.84